• Join FlightAware (Why Join?)
  • Login
  • US Flag 
04:32PM EDT


 

Airport Tracker/Info


-or-


 

Live Flight TrackerFlight Track Log ✈ AVA31 ✈ 18-May-2013 ✈ KMIA - SKRG / MDE

Flight Track Log - Related Links

Times and Time Zones

All times are in EDT time to prevent confusion due to time zone crossing. See the AVA31 flight status page for this flight to view local times or setup timezone preferences in your user account.

Time Position Orientation Groundspeed Altitude Reporting Facility
EDT Latitude Longitude Course Direction KTS MPH feet Rate Location/Type
04:34PM 25.7814 -80.2764 115° Southeast 151 174 1,000  Level Miami Center
04:35PM 25.7656 -80.2389 115° Southeast 199 229 1,800 1,440 Climbing Miami Center
04:36PM 25.7272 -80.1803 126° Southeast 272 313 3,500 2,100 Climbing Miami Center
04:37PM 25.6481 -80.1689 173° South 283 326 6,200 2,400 Climbing Miami Center
04:37PM 25.6294 -80.1661 172° South 282 325 6,700 2,220 Climbing Miami Center
04:38PM 25.5483 -80.1453 167° South 304 350 9,100 2,040 Climbing Miami Center
04:39PM 25.4719 -80.0997 152° Southeast 304 350 10,800 1,500 Climbing Miami Center
04:40PM 25.3789 -80.0603 159° South 329 379 12,200 1,680 Climbing Miami Center
04:41PM 25.2772 -80.0256 163° South 364 419 14,200 1,920 Climbing Miami Center
04:42PM 25.1758 -79.9839 160° South 379 436 16,100 1,740 Climbing Miami Center
04:43PM 25.0681 -79.9419 161° South 397 457 17,700 2,040 Climbing Miami Center
04:44PM 24.9664 -79.9028 161° South 398 458 20,200 1,920 Climbing Miami Center
04:45PM 24.8628 -79.8636 161° South 398 458 21,600 1,380 Climbing Miami Center
04:46PM 24.7550 -79.8244 162° South 398 458 23,000 1,440 Climbing Miami Center
04:47PM 24.6472 -79.7831 161° South 405 466 24,500 1,200 Climbing Miami Center
04:48PM 24.5350 -79.7439 162° South 410 472 25,400 1,080 Climbing Miami Center
04:49PM 24.4231 -79.6978 159° South 421 484 26,700 1,200 Climbing Miami Center
04:50PM 24.3069 -79.6564 162° South 426 490 27,800 1,020 Climbing Miami Center
04:51PM 24.1886 -79.6106 161° South 437 503 28,800 900 Climbing Miami Center
04:52PM 24.0683 -79.5692 163° South 443 510 29,700 900 Climbing Miami Center
04:54PM 23.9312 -79.5080 161° South  Level FlightAware Approximate
05:01PM 23.1453 -79.2188 161° South  Level FlightAware Approximate
05:02PM 23.0330 -79.1774 161° South  Level FlightAware Approximate
05:03PM 22.9208 -79.1361 161° South  Level FlightAware Approximate
05:04PM 22.8086 -79.0949 161° South  Level FlightAware Approximate
05:05PM 22.6963 -79.0537 161° South  Level FlightAware Approximate
05:06PM 22.5841 -79.0126 161° South  Level FlightAware Approximate
05:07PM 22.4718 -78.9716 161° South  Level FlightAware Approximate
05:08PM 22.3595 -78.9307 161° South  Level FlightAware Approximate
05:09PM 22.2472 -78.8898 161° South  Level FlightAware Approximate
05:10PM 22.1349 -78.8490 161° South  Level FlightAware Approximate
05:11PM 22.0226 -78.8082 161° South  Level FlightAware Approximate
05:12PM 21.9078 -78.7769 167° South  Level FlightAware Approximate
05:13PM 21.7924 -78.7480 167° South  Level FlightAware Approximate
05:14PM 21.6769 -78.7192 167° South  Level FlightAware Approximate
05:15PM 21.5625 -78.6863 165° South  Level FlightAware Approximate
05:16PM 21.4481 -78.6530 165° South  Level FlightAware Approximate
05:17PM 21.3337 -78.6197 165° South  Level FlightAware Approximate
05:18PM 21.2194 -78.5865 165° South  Level FlightAware Approximate
05:19PM 21.1050 -78.5533 165° South  Level FlightAware Approximate
05:20PM 20.9906 -78.5202 165° South  Level FlightAware Approximate
05:21PM 20.8762 -78.4872 165° South  Level FlightAware Approximate
05:22PM 20.7618 -78.4541 165° South  Level FlightAware Approximate
05:23PM 20.6474 -78.4212 165° South  Level FlightAware Approximate
05:24PM 20.5329 -78.3883 165° South  Level FlightAware Approximate
05:25PM 20.4185 -78.3554 165° South  Level FlightAware Approximate
05:26PM 20.3041 -78.3226 165° South  Level FlightAware Approximate
05:27PM 20.1896 -78.2898 165° South  Level FlightAware Approximate
05:28PM 20.0752 -78.2571 165° South  Level FlightAware Approximate
05:29PM 19.9608 -78.2245 165° South  Level FlightAware Approximate
05:30PM 19.8462 -78.1923 165° South  Level FlightAware Approximate
05:31PM 19.7316 -78.1604 165° South  Level FlightAware Approximate
05:32PM 19.6169 -78.1285 165° South  Level FlightAware Approximate
05:33PM 19.5023 -78.0966 165° South  Level FlightAware Approximate
05:34PM 19.3877 -78.0648 165° South  Level FlightAware Approximate
05:35PM 19.2730 -78.0331 165° South  Level FlightAware Approximate
05:36PM 19.1584 -78.0013 165° South  Level FlightAware Approximate
05:37PM 19.0438 -77.9697 165° South  Level FlightAware Approximate
05:38PM 18.9291 -77.9380 165° South  Level FlightAware Approximate
05:39PM 18.8144 -77.9064 165° South  Level FlightAware Approximate
05:40PM 18.6998 -77.8749 165° South  Level FlightAware Approximate
05:41PM 18.5851 -77.8434 165° South  Level FlightAware Approximate
05:42PM 18.4704 -77.8119 165° South  Level FlightAware Approximate
05:43PM 18.3557 -77.7805 165° South  Level FlightAware Approximate
05:44PM 18.2410 -77.7491 165° South  Level FlightAware Approximate
05:45PM 18.1264 -77.7178 165° South  Level FlightAware Approximate
05:46PM 18.0117 -77.6864 165° South  Level FlightAware Approximate
05:47PM 17.8969 -77.6552 165° South  Level FlightAware Approximate
05:48PM 17.7823 -77.6238 165° South  Level FlightAware Approximate
05:49PM 17.6677 -77.5922 165° South  Level FlightAware Approximate
05:50PM 17.5531 -77.5606 165° South  Level FlightAware Approximate
05:51PM 17.4385 -77.5290 165° South  Level FlightAware Approximate
05:52PM 17.3239 -77.4975 165° South  Level FlightAware Approximate
05:53PM 17.2092 -77.4660 165° South  Level FlightAware Approximate
05:54PM 17.0946 -77.4346 165° South  Level FlightAware Approximate
05:55PM 16.9800 -77.4032 165° South  Level FlightAware Approximate
05:56PM 16.8654 -77.3718 165° South  Level FlightAware Approximate
05:57PM 16.7507 -77.3405 165° South  Level FlightAware Approximate
05:58PM 16.6361 -77.3092 165° South  Level FlightAware Approximate
05:59PM 16.5214 -77.2779 165° South  Level FlightAware Approximate
06:00PM 16.4068 -77.2467 165° South  Level FlightAware Approximate
06:01PM 16.2921 -77.2155 165° South  Level FlightAware Approximate
06:02PM 16.1775 -77.1844 165° South  Level FlightAware Approximate
06:03PM 16.0628 -77.1533 165° South  Level FlightAware Approximate
06:04PM 15.9481 -77.1222 165° South  Level FlightAware Approximate
06:05PM 15.8335 -77.0912 165° South  Level FlightAware Approximate
06:06PM 15.7188 -77.0602 165° South  Level FlightAware Approximate
06:07PM 15.6041 -77.0292 165° South  Level FlightAware Approximate
06:08PM 15.4894 -76.9983 165° South  Level FlightAware Approximate
06:09PM 15.3747 -76.9674 165° South  Level FlightAware Approximate
06:10PM 15.2600 -76.9365 165° South  Level FlightAware Approximate
06:11PM 15.1454 -76.9057 165° South  Level FlightAware Approximate
06:12PM 15.0307 -76.8749 165° South  Level FlightAware Approximate
06:13PM 14.9147 -76.8497 169° South  Level FlightAware Approximate
06:14PM 14.7984 -76.8266 169° South  Level FlightAware Approximate
06:15PM 14.6820 -76.8035 169° South  Level FlightAware Approximate
06:16PM 14.5656 -76.7804 169° South  Level FlightAware Approximate
06:17PM 14.4493 -76.7574 169° South  Level FlightAware Approximate
06:18PM 14.3329 -76.7343 169° South  Level FlightAware Approximate
06:19PM 14.2165 -76.7113 169° South  Level FlightAware Approximate
06:20PM 14.1001 -76.6884 169° South  Level FlightAware Approximate
06:21PM 13.9837 -76.6654 169° South  Level FlightAware Approximate
06:22PM 13.8674 -76.6425 169° South  Level FlightAware Approximate
06:23PM 13.7510 -76.6196 169° South  Level FlightAware Approximate
06:24PM 13.6346 -76.5967 169° South  Level FlightAware Approximate
06:25PM 13.5183 -76.5732 168° South  Level FlightAware Approximate
06:26PM 13.4022 -76.5488 168° South  Level FlightAware Approximate
06:27PM 13.2861 -76.5245 168° South  Level FlightAware Approximate
06:28PM 13.1700 -76.5002 168° South  Level FlightAware Approximate
06:29PM 13.0539 -76.4759 168° South  Level FlightAware Approximate
06:30PM 12.9378 -76.4517 168° South  Level FlightAware Approximate
06:31PM 12.8216 -76.4276 169° South  Level FlightAware Approximate
06:32PM 12.7053 -76.4043 169° South  Level FlightAware Approximate
06:33PM 12.5891 -76.3810 169° South  Level FlightAware Approximate
06:34PM 12.4728 -76.3576 169° South  Level FlightAware Approximate
06:35PM 12.3565 -76.3344 169° South  Level FlightAware Approximate
06:36PM 12.2402 -76.3111 169° South  Level FlightAware Approximate
06:37PM 12.1239 -76.2878 169° South  Level FlightAware Approximate
06:38PM 12.0076 -76.2646 169° South  Level FlightAware Approximate
06:39PM 11.8913 -76.2414 169° South  Level FlightAware Approximate
06:40PM 11.7750 -76.2182 169° South  Level FlightAware Approximate
06:41PM 11.6587 -76.1950 169° South  Level FlightAware Approximate
06:42PM 11.5424 -76.1719 169° South  Level FlightAware Approximate
06:43PM 11.4261 -76.1488 169° South  Level FlightAware Approximate
06:44PM 11.3098 -76.1256 169° South  Level FlightAware Approximate
06:45PM 11.1935 -76.1025 169° South  Level FlightAware Approximate
06:46PM 11.0772 -76.0795 169° South  Level FlightAware Approximate
06:47PM 10.9608 -76.0564 169° South  Level FlightAware Approximate
06:48PM 10.8445 -76.0334 169° South  Level FlightAware Approximate
06:49PM 10.7282 -76.0104 169° South  Level FlightAware Approximate
06:50PM 10.6119 -75.9874 169° South  Level FlightAware Approximate
06:51PM 10.4956 -75.9644 169° South  Level FlightAware Approximate
06:52PM 10.3792 -75.9414 169° South  Level FlightAware Approximate
06:53PM 10.2629 -75.9185 169° South  Level FlightAware Approximate
06:54PM 10.1466 -75.8955 169° South  Level FlightAware Approximate
06:55PM 10.0303 -75.8726 169° South  Level FlightAware Approximate
06:56PM 9.9138 -75.8502 169° South  Level FlightAware Approximate
06:57PM 9.7974 -75.8279 169° South  Level FlightAware Approximate
06:58PM 9.6810 -75.8057 169° South  Level FlightAware Approximate
06:59PM 9.5645 -75.7835 169° South  Level FlightAware Approximate
07:00PM 9.4480 -75.7613 169° South  Level FlightAware Approximate
07:01PM 9.3316 -75.7391 169° South  Level FlightAware Approximate
07:02PM 9.2151 -75.7170 169° South  Level FlightAware Approximate
07:03PM 9.0987 -75.6948 169° South  Level FlightAware Approximate
07:04PM 8.9822 -75.6727 169° South  Level FlightAware Approximate
07:05PM 8.8658 -75.6505 169° South  Level FlightAware Approximate
07:06PM 8.7493 -75.6284 169° South  Level FlightAware Approximate
07:07PM 8.6328 -75.6063 169° South  Level FlightAware Approximate
07:08PM 8.5164 -75.5842 169° South  Level FlightAware Approximate
07:09PM 8.3999 -75.5622 169° South  Level FlightAware Approximate
07:10PM 8.2834 -75.5401 169° South  Level FlightAware Approximate
07:11PM 8.1670 -75.5181 169° South  Level FlightAware Approximate
07:12PM 8.0505 -75.4960 169° South  Level FlightAware Approximate
07:13PM 7.9346 -75.4712 166° South  Level FlightAware Approximate
07:14PM 7.8187 -75.4500 180° South  Level FlightAware Approximate
07:15PM 7.7002 -75.4500 180° South  Level FlightAware Approximate
07:16PM 7.5817 -75.4500 180° South  Level FlightAware Approximate
07:17PM 7.4634 -75.4450 176° South  Level FlightAware Approximate
07:18PM 7.3452 -75.4366 176° South  Level FlightAware Approximate
07:19PM 7.2268 -75.4333 180° South  Level FlightAware Approximate
07:20PM 7.1083 -75.4333 180° South  Level FlightAware Approximate
07:21PM 6.9899 -75.4323 178° South  Level FlightAware Approximate
07:22PM 6.8714 -75.4277 178° South  Level FlightAware Approximate
07:23PM 6.7530 -75.4232 178° South  Level FlightAware Approximate
07:24PM 6.6346 -75.4186 178° South  Level FlightAware Approximate
07:25PM 6.5162 -75.4167 180° South  Level FlightAware Approximate
07:26PM 6.3977 -75.4167 180° South  Level FlightAware Approximate
07:27PM 6.2792 -75.4167 180° South  Level FlightAware Approximate
07:28PM 6.1607 -75.4167 180° South  Level FlightAware Approximate
07:29PM 6.1645 -75.4231 180° South  Level Estimated
07:30PM 6.1645 -75.4231 North  Level Estimated
07:31PM 6.1645 -75.4231 North  Level Estimated
07:32PM 6.1645 -75.4231 North  Level Estimated
07:33PM 6.1645 -75.4231 North  Level Estimated
07:34PM 6.1645 -75.4231 North  Level Estimated
07:35PM 6.1645 -75.4231 North  Level Estimated
07:36PM 6.1645 -75.4231 North  Level Estimated
07:37PM 6.1645 -75.4231 North  Level Estimated
07:38PM 6.1645 -75.4231 North  Level Estimated
07:39PM 6.1645 -75.4231 North  Level Estimated
07:40PM 6.1645 -75.4231 North  Level Estimated
07:41PM 6.1645 -75.4231 North  Level Estimated
07:42PM 6.1645 -75.4231 North  Level Estimated
07:43PM 6.1645 -75.4231 North  Level Estimated
07:44PM 6.1645 -75.4231 North  Level Estimated